Time;durP1;ratioP1;P1;durP2;ratioP2;P2;SDS_P1;SDS_P2;PMS_P1;PMS_P2;Temp;Humidity;BMP_temperature;BMP_pressure;BME280_temperature;BME280_humidity;BME280_pressure;Samples;Min_cycle;Max_cycle;Signal;HPM_P1;HPM_P2
2024/03/15 13:09:10;;;;;;;0.20;0.20;;;;;;;17.28;74.46;75708.16;3828575;23;20339;-87
2024/03/15 13:15:15;;;;;;;;;;;;;;;17.24;73.97;75698.38;4924090;29;20044;-88
2024/03/15 13:18:00;;;;;;;0.20;0.20;;;;;;;17.20;73.15;75696.34;4906849;29;19963;-88
2024/03/15 13:21:10;;;;;;;;;;;;;;;;;;;;;
2024/03/15 13:24:13;;;;;;;0.20;0.20;;;;;;;16.94;74.59;75663.00;4923295;29;20063;-88
2024/03/15 13:26:56;;;;;;;0.20;0.20;;;;;;;17.13;74.35;75685.16;4921598;29;20040;-87
2024/03/15 13:34:34;;;;;;;0.20;0.20;;;;;;;17.70;70.42;75752.38;5070784;23;20550;-88
2024/03/15 13:37:53;;;;;;;0.20;0.20;;;;;;;17.21;72.19;75697.56;4929741;29;20543;-86
2024/03/15 13:40:24;;;;;;;0.20;0.20;;;;;;;17.57;73.09;75733.38;5122352;23;20019;-87
2024/03/15 13:42:52;;;;;;;0.20;0.20;;;;;;;17.73;71.80;75755.41;4863856;29;20053;-87
2024/03/15 13:50:34;;;;;;;0.20;0.20;;;;;;;17.73;71.96;75755.41;4920243;29;20045;-88
2024/03/15 14:03:45;;;;;;;0.20;0.20;;;;;;;17.42;73.00;75722.19;4892201;29;20037;-89
2024/03/15 14:07:06;;;;;;;0.20;0.20;;;;;;;17.05;74.03;75675.00;4890668;29;20024;-87
2024/03/15 14:09:39;;;;;;;0.20;0.20;;;;;;;17.42;71.36;75724.38;4923244;29;20013;-88
2024/03/15 14:12:09;;;;;;;0.20;0.20;;;;;;;17.36;70.85;75711.56;4892005;29;20077;-87
2024/03/15 14:17:58;;;;;;;0.20;0.20;;;;;;;17.40;74.06;75716.38;4923064;29;19926;-87
2024/03/15 14:20:59;;;;;;;0.20;0.20;;;;;;;17.47;72.47;75725.38;4920459;29;20033;-88
2024/03/15 14:23:34;;;;;;;0.20;0.20;;;;;;;17.13;74.56;75684.56;4920825;29;20048;-88
2024/03/15 14:26:15;;;;;;;0.20;0.20;;;;;;;17.01;74.54;75674.16;4892263;29;20041;-87
2024/03/15 14:28:56;;;;;;;0.20;0.20;;;;;;;17.36;73.23;75712.16;4915658;29;20048;-87
2024/03/15 14:31:42;;;;;;;0.20;0.20;;;;;;;17.77;72.50;75765.81;4879025;29;20032;-89
2024/03/15 14:34:14;;;;;;;0.20;0.20;;;;;;;16.97;73.18;75672.16;4861445;29;20040;-88
2024/03/15 14:37:02;;;;;;;0.20;0.20;;;;;;;17.54;72.10;75730.38;4922832;29;20009;-89
2024/03/15 14:40:08;;;;;;;0.20;0.20;;;;;;;17.34;72.76;75711.97;4912517;29;20041;-88
2024/03/15 14:42:44;;;;;;;0.20;0.20;;;;;;;17.60;71.68;75745.38;4921774;29;20013;-88
2024/03/15 14:45:33;;;;;;;0.20;0.20;;;;;;;17.53;72.15;75729.78;4919600;29;20065;-88
2024/03/15 14:48:12;;;;;;;0.20;0.20;;;;;;;17.03;71.69;75675.97;4898665;29;20071;-88
2024/03/15 14:50:39;;;;;;;0.20;0.20;;;;;;;16.99;74.91;75673.94;4919783;29;20033;-88
2024/03/15 14:54:02;;;;;;;0.20;0.20;;;;;;;16.92;74.35;75665.56;4921181;29;20024;-88
2024/03/15 14:56:35;;;;;;;0.20;0.20;;;;;;;16.48;75.39;75611.16;4904717;29;20036;-88
2024/03/15 14:59:02;;;;;;;0.20;0.20;;;;;;;17.01;73.38;75670.78;4903274;29;20025;-88
2024/03/15 15:01:58;;;;;;;0.20;0.20;;;;;;;17.00;74.07;75672.38;4888729;29;20052;-89
2024/03/15 15:04:26;;;;;;;0.20;0.20;;;;;;;16.48;75.09;75608.38;4920996;29;20033;-88
2024/03/15 15:07:28;;;;;;;0.20;0.20;;;;;;;16.46;75.72;75612.16;4921177;29;20092;-88
2024/03/15 15:09:56;;;;;;;0.20;0.20;;;;;;;16.40;75.79;75601.56;4918911;29;20086;-87
2024/03/15 15:12:23;;;;;;;0.20;0.20;;;;;;;16.27;77.40;75585.97;4918927;29;20029;-87
2024/03/15 15:14:56;;;;;;;0.20;0.20;;;;;;;16.58;76.54;75623.16;4904369;29;20031;-88
2024/03/15 15:17:43;;;;;;;0.20;0.20;;;;;;;16.66;76.53;75629.34;4920012;29;20045;-88
2024/03/15 15:20:32;;;;;;;0.20;0.20;;;;;;;16.53;78.35;75611.59;4888614;29;20056;-86
2024/03/15 15:23:04;;;;;;;0.20;0.20;;;;;;;15.99;79.45;75550.81;4917562;29;20035;-88
2024/03/15 15:25:40;;;;;;;0.20;0.20;;;;;;;15.60;80.55;75505.22;4903600;29;20055;-87
2024/03/15 15:28:10;;;;;;;0.20;0.20;;;;;;;15.95;81.05;75543.22;4889305;29;20036;-87
2024/03/15 15:30:41;;;;;;;0.20;0.20;;;;;;;15.69;82.56;75518.81;4903071;29;20043;-86
2024/03/15 15:33:31;;;;;;;0.20;0.20;;;;;;;15.29;83.68;75473.66;4899767;29;20029;-88
2024/03/15 15:36:03;;;;;;;0.20;0.20;;;;;;;15.16;85.07;75456.47;4902975;29;20036;-88
2024/03/15 15:38:33;;;;;;;0.20;0.20;;;;;;;15.59;85.21;75504.03;4902246;29;20040;-88
2024/03/15 15:42:08;;;;;;;0.20;0.20;;;;;;;15.33;84.97;75476.25;4922015;29;20012;-89
2024/03/15 15:45:03;;;;;;;0.20;0.20;;;;;;;14.91;85.88;75421.56;4921388;29;20276;-88
2024/03/15 15:51:43;;;;;;;0.20;0.20;;;;;;;14.81;88.42;75417.34;4921405;29;20105;-88
2024/03/15 16:10:26;;;;;;;0.28;0.28;;;;;;;14.38;92.66;75366.97;5681399;23;20127;-87
2024/03/15 16:13:22;;;;;;;0.20;0.20;;;;;;;14.21;93.33;75341.06;4900561;29;20025;-87
2024/03/15 16:16:19;;;;;;;0.20;0.20;;;;;;;14.18;94.74;75340.84;4899168;29;20032;-87
2024/03/15 16:19:05;;;;;;;0.20;0.20;;;;;;;14.22;94.19;75347.81;4897337;29;20029;-87
2024/03/15 16:21:37;;;;;;;0.20;0.20;;;;;;;13.92;95.30;75313.09;4886102;29;20041;-88
2024/03/15 16:24:03;;;;;;;0.20;0.20;;;;;;;13.80;96.02;75295.94;4868612;29;20109;-88
2024/03/15 16:26:50;;;;;;;0.20;0.20;;;;;;;14.06;97.05;75329.88;4899379;29;20052;-88
2024/03/15 16:29:42;;;;;;;0.20;0.20;;;;;;;13.82;97.78;75301.13;4900154;29;20037;-88
2024/03/15 16:32:56;;;;;;;0.20;0.20;;;;;;;14.03;97.55;75325.66;4899182;29;20055;-88
2024/03/15 16:35:53;;;;;;;0.20;0.20;;;;;;;13.52;98.84;75266.38;4897669;29;20009;-88
2024/03/15 16:38:59;;;;;;;0.20;0.20;;;;;;;13.42;99.27;75254.41;4887074;29;20207;-88
2024/03/15 16:41:47;;;;;;;0.20;0.20;;;;;;;13.62;99.26;75272.78;4846383;29;20042;-87
2024/03/15 16:44:13;;;;;;;0.20;0.20;;;;;;;13.59;99.39;75272.00;4846846;29;20049;-87
2024/03/15 16:46:54;;;;;;;0.20;0.20;;;;;;;13.31;99.01;75241.25;4846946;29;20037;-87
2024/03/15 16:49:31;;;;;;;0.30;0.30;;;;;;;13.43;99.22;75255.63;4862751;29;20074;-87
2024/03/15 16:52:35;;;;;;;0.20;0.20;;;;;;;13.60;99.55;75273.19;4847602;29;20136;-87
2024/03/15 16:55:11;;;;;;;0.20;0.20;;;;;;;13.69;99.55;75279.97;4861972;29;20038;-88
2024/03/15 16:57:38;;;;;;;0.30;0.30;;;;;;;13.66;99.65;75281.97;4844469;29;20064;-87
2024/03/15 17:00:27;;;;;;;0.20;0.20;;;;;;;13.46;99.80;75255.81;4847685;29;20041;-88
2024/03/15 17:02:53;;;;;;;0.30;0.30;;;;;;;13.47;99.97;75254.25;4848618;29;20030;-88
2024/03/15 17:05:20;;;;;;;0.22;0.22;;;;;;;13.28;100.00;75232.09;4829381;29;20266;-88
2024/03/15 17:07:54;;;;;;;0.20;0.20;;;;;;;13.52;100.00;75266.38;4859993;29;20034;-88
2024/03/15 17:10:30;;;;;;;0.20;0.20;;;;;;;13.26;100.00;75235.25;4862476;29;20122;-88
2024/03/15 17:13:05;;;;;;;0.20;0.20;;;;;;;13.28;100.00;75238.25;4896124;29;20029;-87
2024/03/15 17:15:32;;;;;;;0.20;0.20;;;;;;;13.43;100.00;75261.19;4897104;29;20040;-87
2024/03/15 17:17:58;;;;;;;0.20;0.20;;;;;;;13.28;100.00;75232.09;4894613;29;20576;-87
2024/03/15 17:20:32;;;;;;;0.20;0.20;;;;;;;13.49;100.00;75262.81;4895080;29;20117;-88
2024/03/15 17:22:59;;;;;;;0.20;0.20;;;;;;;13.43;100.00;75252.84;4898101;29;20071;-87
2024/03/15 17:25:25;;;;;;;0.20;0.20;;;;;;;13.45;100.00;75255.22;4895428;29;20057;-87
2024/03/15 17:27:54;;;;;;;0.20;0.20;;;;;;;13.50;100.00;75264.00;4895019;29;20037;-88
2024/03/15 17:30:20;;;;;;;0.20;0.20;;;;;;;13.44;100.00;75251.25;4895228;29;20092;-88
2024/03/15 17:32:52;;;;;;;0.20;0.20;;;;;;;13.09;100.00;75218.84;4895365;29;20120;-88
2024/03/15 17:35:22;;;;;;;0.20;0.20;;;;;;;13.39;100.00;75250.22;4863307;29;20052;-89
2024/03/15 17:44:40;;;;;;;0.20;0.20;;;;;;;13.09;100.00;75213.31;5124061;23;20111;-88
2024/03/15 17:47:27;;;;;;;0.20;0.20;;;;;;;13.08;100.00;75214.28;4925396;29;20040;-88
2024/03/15 17:50:08;;;;;;;0.20;0.20;;;;;;;13.02;100.00;75199.38;4909865;29;20111;-87
2024/03/15 17:52:39;;;;;;;0.20;0.20;;;;;;;12.88;100.00;75193.13;4923854;29;20148;-88
2024/03/15 17:55:08;;;;;;;0.20;0.20;;;;;;;12.87;100.00;75192.53;4934031;29;20028;-88
2024/03/15 17:58:05;;;;;;;0.20;0.20;;;;;;;12.98;100.00;75202.31;4922876;29;20058;-89
2024/03/15 18:01:16;;;;;;;0.30;0.30;;;;;;;12.98;100.00;75202.91;4906709;29;20053;-88
2024/03/15 18:03:56;;;;;;;0.20;0.20;;;;;;;12.91;100.00;75194.56;4906098;29;20055;-88
2024/03/15 18:06:48;;;;;;;0.20;0.20;;;;;;;12.78;100.00;75173.44;4925253;29;20044;-88
2024/03/15 18:09:39;;;;;;;0.28;0.28;;;;;;;12.97;100.00;75201.13;4935389;29;20016;-87
2024/03/15 18:12:05;;;;;;;0.20;0.20;;;;;;;12.96;100.00;75195.00;4906963;29;20036;-88
2024/03/15 18:35:38;;;;;;;0.20;0.20;;;;;;;12.19;100.00;75106.81;4922567;29;20043;-88
2024/03/15 18:42:00;;;;;;;0.20;0.20;;;;;;;12.38;100.00;75132.34;4924078;29;20477;-89
2024/03/15 19:02:53;;;;;;;0.20;0.20;;;;;;;12.32;100.00;75125.16;5933227;23;20039;-88
2024/03/15 19:05:20;;;;;;;0.20;0.20;;;;;;;11.98;100.00;75080.13;4900390;29;20071;-88
2024/03/15 19:16:26;;;;;;;0.30;0.30;;;;;;;11.89;100.00;75074.94;4936165;29;20050;-89
2024/03/15 19:24:58;;;;;;;0.28;0.28;;;;;;;11.82;100.00;75066.53;4904871;29;20035;-88
2024/03/15 20:01:59;;;;;;;0.20;0.20;;;;;;;12.00;100.00;75085.31;5682424;23;20093;-88
2024/03/15 20:07:04;;;;;;;0.20;0.20;;;;;;;11.80;100.00;75064.13;5912186;23;20239;-88
2024/03/15 20:12:42;;;;;;;0.20;0.20;;;;;;;11.83;100.00;75069.94;4915210;29;20052;-89
2024/03/15 20:28:10;;;;;;;0.20;0.20;;;;;;;11.73;100.00;75055.78;5860394;23;20069;-89
2024/03/15 22:22:15;;;;;;;0.28;0.28;;;;;;;11.23;100.00;74999.94;5256119;23;20048;-87
